This is the latest recevied weather packets stored in our database for station/object OE9FWV. If no packets are shown the sender has not sent any weather packets the latest 10 day(s).
| Time | Temp. | Humidity | Pressure | Rain* | Wind** | Luminosity | Snow |
|---|---|---|---|---|---|---|---|
| 1777792978 | 18.89° C | 43% | 1014.2 hPa | 0 mm | - | - | - |
| 1777791774 | 17.78° C | 49% | 1014.3 hPa | 0 mm | - | - | - |
| 1777791173 | 17.22° C | 48% | 1014.4 hPa | 0 mm | - | - | - |
| 1777790565 | 16.11° C | 51% | 1014.5 hPa | 0 mm | - | - | - |
| 1777789961 | 15.56° C | 55% | 1014.5 hPa | 0 mm | - | - | - |
| 1777789357 | 15.56° C | 53% | 1014.6 hPa | 0 mm | - | - | - |
| 1777788146 | 15° C | 55% | 1014.6 hPa | 0 mm | - | - | - |
| 1777787546 | 14.44° C | 57% | 1014.7 hPa | 0 mm | - | - | - |
| 1777786946 | 14.44° C | 56% | 1014.6 hPa | 0 mm | - | - | - |
| 1777786346 | 13.89° C | 58% | 1014.7 hPa | 0 mm | - | - | - |
| 1777785743 | 13.33° C | 59% | 1014.8 hPa | 0 mm | - | - | - |
| 1777785141 | 13.33° C | 59% | 1014.9 hPa | 0 mm | - | - | - |
| 1777784533 | 12.78° C | 60% | 1014.9 hPa | 0 mm | - | - | - |
| 1777783930 | 12.78° C | 59% | 1015.1 hPa | 0 mm | - | - | - |
| 1777783330 | 12.78° C | 57% | 1015 hPa | 0 mm | - | - | - |
| 1777782723 | 12.78° C | 59% | 1015 hPa | 0 mm | - | - | - |
| 1777782120 | 12.78° C | 59% | 1015 hPa | 0 mm | - | - | - |
| 1777781516 | 12.22° C | 61% | 1015 hPa | 0 mm | - | - | - |
| 1777780909 | 12.22° C | 62% | 1015 hPa | 0 mm | - | - | - |
| 1777780308 | 12.78° C | 61% | 1015.1 hPa | 0 mm | - | - | - |
| 1777779709 | 12.78° C | 61% | 1015.1 hPa | 0 mm | - | - | - |
| 1777779109 | 12.78° C | 62% | 1015.1 hPa | 0 mm | - | - | - |
| 1777778504 | 12.78° C | 62% | 1015.1 hPa | 0 mm | - | - | - |
| 1777777900 | 13.33° C | 61% | 1015.1 hPa | 0 mm | - | - | - |
| 1777777293 | 13.89° C | 60% | 1015.3 hPa | 0 mm | - | - | - |
* Rain latest hour (hover to see other rain measurements)
** Current wind speed in m/s (hover to see current wind gust speed)